| time (UTC) | temp C | wind direction | speed KPH | gust KPH | rain 1hr cm | rain 24hr cm | rain mn cm | humidity % | barometer mb |
| 20260507160049 | 16 | 297 | 6.4 | 12.9 | 0.00 | 0.76 | 0.51 | 54 | 1005.5 |
| 20260507154548 | 16 | 360 | 8.0 | 19.3 | 0.00 | 0.76 | 0.51 | 51 | 1005.8 |
| 20260507153046 | 15 | 20 | 1.6 | 9.7 | 0.00 | 0.76 | 0.51 | 61 | 1005.9 |
| 20260507151543 | 15 | 360 | 6.4 | 16.1 | 0.00 | 0.76 | 0.51 | 60 | 1006.0 |
| 20260507150040 | 15 | 250 | 1.6 | 14.5 | 0.00 | 0.76 | 0.51 | 66 | 1006.0 |
| 20260507144540 | 14 | 27 | 6.4 | 17.7 | 0.00 | 0.76 | 0.51 | 67 | 1006.3 |
| 20260507143039 | 14 | 360 | 6.4 | 20.9 | 0.00 | 0.76 | 0.51 | 68 | 1006.3 |
| 20260507141539 | 14 | 360 | 4.8 | 14.5 | 0.00 | 0.76 | 0.51 | 69 | 1006.4 |
| 20260507140038 | 13 | 360 | 3.2 | 11.3 | 0.00 | 0.76 | 0.51 | 74 | 1006.4 |
| 20260507134537 | 12 | 360 | 1.6 | 8.0 | 0.00 | 0.76 | 0.51 | 77 | 1006.4 |
| 20260507133035 | 12 | 360 | 3.2 | 12.9 | 0.00 | 0.76 | 0.51 | 82 | 1006.6 |
| 20260507131532 | 11 | 360 | 0.0 | 8.0 | 0.00 | 0.76 | 0.51 | 88 | 1006.6 |
| 20260507130039 | 11 | 335 | 3.2 | 12.9 | 0.00 | 0.76 | 0.51 | 90 | 1006.8 |
| 20260507124531 | 10 | 21 | 0.0 | 8.0 | 0.00 | 0.76 | 0.51 | 93 | 1006.6 |
| 20260507123031 | 10 | 360 | 1.6 | 6.4 | 0.00 | 0.76 | 0.51 | 94 | 1006.8 |
| 20260507121530 | 10 | 360 | 0.0 | 4.8 | 0.00 | 0.76 | 0.51 | 96 | 1007.0 |
| 20260507120029 | 10 | 360 | 0.0 | 1.6 | 0.00 | 0.76 | 0.51 | 96 | 1006.6 |
| 20260507114528 | 10 | 360 | 0.0 | 0.0 | 0.03 | 0.76 | 0.51 | 96 | 1006.6 |
| 20260507113027 | 10 | 360 | 0.0 | 0.0 | 0.03 | 0.76 | 0.51 | 96 | 1006.6 |
| 20260507111527 | 9 | 360 | 0.0 | 0.0 | 0.05 | 0.76 | 0.51 | 96 | 1006.4 |
| 20260507110025 | 9 | 360 | 0.0 | 0.0 | 0.08 | 0.76 | 0.51 | 96 | 1006.4 |
| 20260507104524 | 9 | 360 | 0.0 | 0.0 | 0.05 | 0.71 | 0.48 | 96 | 1006.0 |
| 20260507103029 | 9 | 294 | 0.0 | 0.0 | 0.08 | 0.71 | 0.48 | 96 | 1006.2 |
| 20260507101522 | 9 | 294 | 0.0 | 0.0 | 0.08 | 0.71 | 0.46 | 96 | 1006.5 |
| 20260507100027 | 9 | 295 | 0.0 | 1.6 | 0.05 | 0.69 | 0.43 | 95 | 1006.1 |
| 20260507094520 | 9 | 296 | 1.6 | 6.4 | 0.10 | 0.69 | 0.43 | 94 | 1006.1 |
| 20260507093018 | 9 | 294 | 0.0 | 4.8 | 0.15 | 0.66 | 0.41 | 94 | 1005.9 |
| 20260507091524 | 9 | 290 | 0.0 | 6.4 | 0.20 | 0.64 | 0.38 | 94 | 1005.9 |
| 20260507090018 | 10 | 329 | 0.0 | 4.8 | 0.23 | 0.64 | 0.38 | 93 | 1005.5 |
| 20260507084516 | 10 | 327 | 0.0 | 4.8 | 0.20 | 0.58 | 0.33 | 92 | 1005.8 |
| 20260507083011 | 10 | 333 | 0.0 | 4.8 | 0.18 | 0.51 | 0.25 | 91 | 1005.8 |
| 20260507081509 | 10 | 336 | 0.0 | 4.8 | 0.15 | 0.43 | 0.18 | 90 | 1005.6 |
| 20260507080007 | 10 | 346 | 1.6 | 8.0 | 0.13 | 0.41 | 0.15 | 89 | 1006.0 |
| 20260507074504 | 11 | 360 | 0.0 | 9.7 | 0.10 | 0.38 | 0.13 | 87 | 1005.8 |
| 20260507073100 | 12 | 49 | 3.2 | 14.5 | 0.05 | 0.33 | 0.08 | 87 | 1005.7 |
| 20260507071610 | 12 | 346 | 3.2 | 12.9 | 0.00 | 0.28 | 0.03 | 89 | 1004.7 |
| 20260507070056 | 12 | 360 | 0.0 | 6.4 | 0.00 | 0.28 | 0.03 | 90 | 1004.5 |
| 20260507064554 | 12 | 304 | 0.0 | 8.0 | 0.00 | 0.28 | 0.03 | 88 | 1004.6 |
| 20260507063055 | 13 | 360 | 3.2 | 12.9 | 0.00 | 0.28 | 0.03 | 89 | 1004.8 |
| 20260507061556 | 13 | 360 | 3.2 | 8.0 | 0.00 | 0.28 | 0.03 | 90 | 1004.7 |
| 20260507060047 | 13 | 360 | 0.0 | 4.8 | 0.00 | 0.28 | 0.03 | 93 | 1004.7 |
| 20260507054545 | 13 | 360 | 1.6 | 6.4 | 0.00 | 0.28 | 0.03 | 94 | 1005.0 |
| 20260507053110 | 14 | 360 | 1.6 | 4.8 | 0.00 | 0.28 | 0.03 | 94 | 1005.1 |
| 20260507051544 | 14 | 360 | 0.0 | 4.8 | 0.00 | 0.28 | 0.03 | 94 | 1005.1 |
| 20260507050043 | 14 | 360 | 3.2 | 9.7 | 0.03 | 0.28 | 0.03 | 94 | 1004.8 |
| 20260507044535 | 15 | 360 | 0.0 | 8.0 | 0.03 | 0.28 | 0.03 | 96 | 1004.8 |
| 20260507043036 | 15 | 360 | 0.0 | 8.0 | 0.03 | 0.28 | 0.03 | 96 | 1004.8 |
| 20260507041532 | 15 | 360 | 0.0 | 4.8 | 0.03 | 0.28 | 0.03 | 96 | 1004.7 |
| 20260507040031 | 15 | 360 | 0.0 | 6.4 | 0.00 | 0.25 | 0.00 | 95 | 1004.8 |
| 20260507034536 | 15 | 72 | 1.6 | 8.0 | 0.00 | 0.25 | 0.25 | 95 | 1005.1 |
| 20260507033039 | 15 | 360 | 1.6 | 9.7 | 0.00 | 0.25 | 0.25 | 95 | 1005.0 |
| 20260507031528 | 15 | 360 | 0.0 | 6.4 | 0.00 | 0.25 | 0.25 | 95 | 1004.7 |
| 20260507030029 | 15 | 360 | 0.0 | 8.0 | 0.00 | 0.25 | 0.25 | 96 | 1004.6 |
| 20260507024527 | 15 | 360 | 0.0 | 4.8 | 0.00 | 0.25 | 0.25 | 96 | 1004.5 |
| 20260507023033 | 15 | 360 | 0.0 | 3.2 | 0.00 | 0.25 | 0.25 | 96 | 1004.6 |
| 20260507021525 | 15 | 360 | 0.0 | 3.2 | 0.00 | 0.25 | 0.25 | 96 | 1004.6 |
| 20260507020026 | 15 | 360 | 0.0 | 0.0 | 0.00 | 0.25 | 0.25 | 96 | 1004.6 |
| 20260507014525 | 14 | 360 | 0.0 | 4.8 | 0.00 | 0.25 | 0.25 | 97 | 1004.6 |
| 20260507013024 | 14 | 360 | 0.0 | 3.2 | 0.00 | 0.25 | 0.25 | 97 | 1004.7 |
| 20260507011528 | 14 | 360 | 0.0 | 3.2 | 0.00 | 0.25 | 0.25 | 96 | 1005.0 |
| 20260507010026 | 14 | 360 | 0.0 | 1.6 | 0.00 | 0.25 | 0.25 | 96 | 1005.1 |
| 20260507004532 | 14 | 360 | 0.0 | 6.4 | 0.03 | 0.25 | 0.25 | 96 | 1005.1 |
| 20260507003022 | 14 | 360 | 0.0 | 4.8 | 0.05 | 0.25 | 0.25 | 96 | 1004.9 |
| 20260507001521 | 14 | 360 | 0.0 | 12.9 | 0.08 | 0.25 | 0.25 | 96 | 1004.8 |
| 20260507000020 | 14 | 360 | 0.0 | 6.4 | 0.10 | 0.25 | 0.25 | 95 | 1004.8 |
| 20260506234519 | 14 | 360 | 0.0 | 3.2 | 0.08 | 0.23 | 0.23 | 95 | 1004.7 |
| 20260506233018 | 15 | 360 | 0.0 | 4.8 | 0.05 | 0.20 | 0.20 | 94 | 1004.5 |
| 20260506231516 | 15 | 360 | 0.0 | 9.7 | 0.03 | 0.18 | 0.18 | 94 | 1004.6 |
| 20260506230039 | 15 | 360 | 0.0 | 4.8 | 0.00 | 0.15 | 0.15 | 94 | 1004.8 |
| 20260506224514 | 15 | 360 | 0.0 | 6.4 | 0.00 | 0.15 | 0.15 | 94 | 1004.7 |
| 20260506223014 | 15 | 360 | 1.6 | 4.8 | 0.03 | 0.15 | 0.15 | 94 | 1004.5 |
| 20260506221511 | 15 | 360 | 0.0 | 4.8 | 0.03 | 0.15 | 0.15 | 94 | 1004.8 |
| 20260506220025 | 15 | 51 | 0.0 | 4.8 | 0.05 | 0.15 | 0.15 | 94 | 1005.0 |
| 20260506214509 | 15 | 360 | 0.0 | 12.9 | 0.08 | 0.15 | 0.15 | 93 | 1004.8 |
| 20260506213107 | 16 | 360 | 1.6 | 8.0 | 0.08 | 0.13 | 0.13 | 92 | 1005.2 |
| 20260506211508 | 16 | 360 | 0.0 | 9.7 | 0.08 | 0.13 | 0.13 | 92 | 1005.4 |
| 20260506210011 | 16 | 360 | 3.2 | 17.7 | 0.05 | 0.10 | 0.10 | 91 | 1005.4 |
| 20260506204504 | 16 | 360 | 1.6 | 12.9 | 0.05 | 0.08 | 0.08 | 90 | 1005.5 |
| 20260506203003 | 16 | 360 | 1.6 | 17.7 | 0.03 | 0.05 | 0.05 | 89 | 1005.5 |
| 20260506201502 | 16 | 360 | 1.6 | 8.0 | 0.05 | 0.05 | 0.05 | 88 | 1005.5 |
| 20260506200002 | 17 | 360 | 3.2 | 9.7 | 0.05 | 0.05 | 0.05 | 87 | 1005.6 |
| 20260506194501 | 17 | 360 | 0.0 | 3.2 | 0.03 | 0.03 | 0.03 | 86 | 1005.5 |
| 20260506193101 | 17 | 360 | 0.0 | 6.4 | 0.03 | 0.03 | 0.03 | 83 | 1005.8 |
| 20260506191608 | 18 | 360 | 0.0 | 3.2 | 0.00 | 0.00 | 0.00 | 80 | 1005.8 |
| 20260506190059 | 19 | 243 | 0.0 | 20.9 | 0.00 | 0.00 | 0.00 | 75 | 1005.8 |
| 20260506184557 | 20 | 191 | 3.2 | 9.7 | 0.00 | 0.00 | 0.00 | 71 | 1005.7 |
| 20260506183106 | 20 | 208 | 3.2 | 11.3 | 0.00 | 0.00 | 0.00 | 69 | 1005.9 |
| 20260506181601 | 20 | 248 | 0.0 | 12.9 | 0.00 | 0.00 | 0.00 | 68 | 1006.0 |
| 20260506180113 | 21 | 205 | 1.6 | 8.0 | 0.00 | 0.00 | 0.00 | 66 | 1006.1 |
| 20260506174553 | 22 | 234 | 3.2 | 12.9 | 0.00 | 0.00 | 0.00 | 64 | 1006.3 |
| 20260506173119 | 22 | 231 | 8.0 | 32.2 | 0.00 | 0.00 | 0.00 | 62 | 1006.3 |
| 20260506171551 | 22 | 275 | 1.6 | 16.1 | 0.00 | 0.00 | 0.00 | 62 | 1006.4 |
| 20260506170051 | 22 | 213 | 3.2 | 20.9 | 0.00 | 0.00 | 0.00 | 63 | 1006.2 |
| 20260506164547 | 22 | 279 | 3.2 | 16.1 | 0.00 | 0.00 | 0.00 | 64 | 1006.6 |
| 20260506163047 | 22 | 213 | 1.6 | 14.5 | 0.00 | 0.00 | 0.00 | 66 | 1006.9 |
| 20260506161552 | 22 | 223 | 3.2 | 12.9 | 0.00 | 0.00 | 0.00 | 65 | 1007.0 |